Terminal Aerodrome Forecast
Issued by NWS Blacksburg, VA

Current Version | Previous Version | Graphics & Text | Print | Product List | Glossary On
Versions: 1 2 3 4 5 6 7 8 9 10 11 12 13 14 15 16 17 18 19 20 21 22 23 24 25 26 27 28 29 30 31 32 33 34 35 36 37
765
FTUS41 KRNK 110931 AAA
TAFBLF
TAF AMD
KBLF 110931Z 1110/1206 29014G23KT 3SM -SHSN SCT007 OVC015
      TEMPO 1110/1114 1SM -SHSN OVC007
     FM111400 29010G18KT P6SM BKN025
     FM111900 30010G18KT P6SM SCT035
     FM112300 30007KT P6SM SCT120=

USA.gov is the U.S. government's official web portal to all federal, state and local government web resources and services.